sensor_id;sensor_type;location;lat;lon;timestamp;P1;durP1;ratioP1;P2;durP2;ratioP2
50695;SDS011;36665;51.786;21.594;2023-01-25T00:06:14;61.20;;;28.80;;
50695;SDS011;36665;51.786;21.594;2023-01-25T00:14:37;66.50;;;27.00;;
50695;SDS011;36665;51.786;21.594;2023-01-25T00:22:59;42.30;;;20.90;;
50695;SDS011;36665;51.786;21.594;2023-01-25T00:40:30;247.50;;;110.10;;
50695;SDS011;36665;51.786;21.594;2023-01-25T00:48:54;59.10;;;24.50;;
50695;SDS011;36665;51.786;21.594;2023-01-25T00:57:17;72.70;;;30.70;;
50695;SDS011;36665;51.786;21.594;2023-01-25T01:05:41;50.50;;;24.20;;
50695;SDS011;36665;51.786;21.594;2023-01-25T01:14:04;67.20;;;31.20;;
50695;SDS011;36665;51.786;21.594;2023-01-25T01:22:27;47.60;;;22.90;;
50695;SDS011;36665;51.786;21.594;2023-01-25T01:30:49;68.20;;;29.70;;
50695;SDS011;36665;51.786;21.594;2023-01-25T01:39:13;50.10;;;24.00;;
50695;SDS011;36665;51.786;21.594;2023-01-25T01:47:40;46.70;;;23.80;;
50695;SDS011;36665;51.786;21.594;2023-01-25T01:56:12;41.80;;;22.00;;
50695;SDS011;36665;51.786;21.594;2023-01-25T02:04:41;57.50;;;27.80;;
50695;SDS011;36665;51.786;21.594;2023-01-25T02:13:09;57.70;;;21.90;;
50695;SDS011;36665;51.786;21.594;2023-01-25T02:21:36;42.30;;;20.10;;
50695;SDS011;36665;51.786;21.594;2023-01-25T02:30:06;44.50;;;22.10;;
50695;SDS011;36665;51.786;21.594;2023-01-25T02:38:31;42.10;;;18.90;;
50695;SDS011;36665;51.786;21.594;2023-01-25T02:46:58;38.80;;;18.80;;
50695;SDS011;36665;51.786;21.594;2023-01-25T02:55:21;37.40;;;17.90;;
50695;SDS011;36665;51.786;21.594;2023-01-25T03:03:44;37.40;;;17.60;;
50695;SDS011;36665;51.786;21.594;2023-01-25T03:12:07;24.70;;;12.10;;
50695;SDS011;36665;51.786;21.594;2023-01-25T03:20:32;24.10;;;12.90;;
50695;SDS011;36665;51.786;21.594;2023-01-25T03:28:55;27.10;;;14.70;;
50695;SDS011;36665;51.786;21.594;2023-01-25T03:37:19;20.70;;;9.50;;
50695;SDS011;36665;51.786;21.594;2023-01-25T03:45:43;27.20;;;12.90;;
50695;SDS011;36665;51.786;21.594;2023-01-25T03:54:07;25.90;;;13.90;;
50695;SDS011;36665;51.786;21.594;2023-01-25T04:02:31;21.20;;;11.80;;
50695;SDS011;36665;51.786;21.594;2023-01-25T04:11:00;20.00;;;10.00;;
50695;SDS011;36665;51.786;21.594;2023-01-25T04:19:24;19.90;;;10.50;;
50695;SDS011;36665;51.786;21.594;2023-01-25T04:27:49;20.40;;;11.00;;
50695;SDS011;36665;51.786;21.594;2023-01-25T04:36:13;24.80;;;10.20;;
50695;SDS011;36665;51.786;21.594;2023-01-25T04:44:37;25.30;;;12.60;;
50695;SDS011;36665;51.786;21.594;2023-01-25T04:53:00;17.10;;;8.70;;
50695;SDS011;36665;51.786;21.594;2023-01-25T05:01:25;21.70;;;12.20;;
50695;SDS011;36665;51.786;21.594;2023-01-25T05:09:48;17.10;;;9.60;;
50695;SDS011;36665;51.786;21.594;2023-01-25T05:18:16;98.20;;;43.00;;
50695;SDS011;36665;51.786;21.594;2023-01-25T05:26:39;24.20;;;12.00;;
50695;SDS011;36665;51.786;21.594;2023-01-25T05:35:21;18.00;;;9.60;;
50695;SDS011;36665;51.786;21.594;2023-01-25T05:43:47;19.70;;;11.10;;
50695;SDS011;36665;51.786;21.594;2023-01-25T05:52:15;46.80;;;20.60;;
50695;SDS011;36665;51.786;21.594;2023-01-25T06:00:39;25.50;;;13.60;;
50695;SDS011;36665;51.786;21.594;2023-01-25T06:09:03;18.90;;;10.80;;
50695;SDS011;36665;51.786;21.594;2023-01-25T06:17:26;24.10;;;12.60;;
50695;SDS011;36665;51.786;21.594;2023-01-25T06:26:05;32.10;;;14.10;;
50695;SDS011;36665;51.786;21.594;2023-01-25T06:34:30;66.10;;;32.00;;
50695;SDS011;36665;51.786;21.594;2023-01-25T06:42:53;31.20;;;16.30;;
50695;SDS011;36665;51.786;21.594;2023-01-25T06:51:16;26.40;;;13.70;;
50695;SDS011;36665;51.786;21.594;2023-01-25T06:59:39;26.10;;;13.40;;
50695;SDS011;36665;51.786;21.594;2023-01-25T07:08:02;39.70;;;18.70;;
50695;SDS011;36665;51.786;21.594;2023-01-25T07:16:26;47.20;;;18.10;;
50695;SDS011;36665;51.786;21.594;2023-01-25T07:24:49;39.30;;;13.70;;
50695;SDS011;36665;51.786;21.594;2023-01-25T07:33:13;22.10;;;10.90;;
50695;SDS011;36665;51.786;21.594;2023-01-25T07:41:37;35.20;;;17.90;;
50695;SDS011;36665;51.786;21.594;2023-01-25T07:50:06;20.70;;;10.30;;
50695;SDS011;36665;51.786;21.594;2023-01-25T07:58:30;21.60;;;11.90;;
50695;SDS011;36665;51.786;21.594;2023-01-25T08:06:53;17.00;;;8.80;;
50695;SDS011;36665;51.786;21.594;2023-01-25T08:15:16;36.30;;;16.00;;
50695;SDS011;36665;51.786;21.594;2023-01-25T08:23:38;19.50;;;12.10;;
50695;SDS011;36665;51.786;21.594;2023-01-25T08:32:01;22.20;;;11.70;;
50695;SDS011;36665;51.786;21.594;2023-01-25T08:40:26;20.50;;;10.60;;
50695;SDS011;36665;51.786;21.594;2023-01-25T08:48:52;24.50;;;12.60;;
50695;SDS011;36665;51.786;21.594;2023-01-25T08:57:17;35.40;;;18.20;;
50695;SDS011;36665;51.786;21.594;2023-01-25T09:05:39;24.10;;;13.60;;
50695;SDS011;36665;51.786;21.594;2023-01-25T09:14:03;23.50;;;11.70;;
50695;SDS011;36665;51.786;21.594;2023-01-25T09:22:27;24.90;;;12.70;;
50695;SDS011;36665;51.786;21.594;2023-01-25T09:30:57;22.90;;;11.60;;
50695;SDS011;36665;51.786;21.594;2023-01-25T09:40:01;17.00;;;9.50;;
50695;SDS011;36665;51.786;21.594;2023-01-25T09:48:31;21.10;;;10.90;;
50695;SDS011;36665;51.786;21.594;2023-01-25T09:57:00;18.50;;;10.50;;
50695;SDS011;36665;51.786;21.594;2023-01-25T10:05:25;29.70;;;15.20;;
50695;SDS011;36665;51.786;21.594;2023-01-25T10:13:54;21.40;;;11.40;;
50695;SDS011;36665;51.786;21.594;2023-01-25T10:22:21;26.30;;;13.60;;
50695;SDS011;36665;51.786;21.594;2023-01-25T10:39:17;21.20;;;12.20;;
50695;SDS011;36665;51.786;21.594;2023-01-25T10:47:43;22.40;;;11.70;;
50695;SDS011;36665;51.786;21.594;2023-01-25T10:56:21;16.90;;;9.40;;
50695;SDS011;36665;51.786;21.594;2023-01-25T11:04:47;28.30;;;13.40;;
50695;SDS011;36665;51.786;21.594;2023-01-25T11:21:36;29.50;;;15.10;;
50695;SDS011;36665;51.786;21.594;2023-01-25T11:30:14;20.90;;;11.20;;
50695;SDS011;36665;51.786;21.594;2023-01-25T11:55:55;291.70;;;98.70;;
50695;SDS011;36665;51.786;21.594;2023-01-25T12:39:24;33.00;;;18.10;;
50695;SDS011;36665;51.786;21.594;2023-01-25T12:47:55;39.90;;;20.30;;
50695;SDS011;36665;51.786;21.594;2023-01-25T12:56:31;35.40;;;19.90;;
50695;SDS011;36665;51.786;21.594;2023-01-25T13:05:21;44.00;;;22.40;;
50695;SDS011;36665;51.786;21.594;2023-01-25T13:23:12;57.90;;;31.50;;
50695;SDS011;36665;51.786;21.594;2023-01-25T13:32:13;34.90;;;17.10;;
50695;SDS011;36665;51.786;21.594;2023-01-25T13:41:00;50.80;;;28.50;;
50695;SDS011;36665;51.786;21.594;2023-01-25T14:06:42;48.60;;;23.80;;
50695;SDS011;36665;51.786;21.594;2023-01-25T14:15:15;37.70;;;18.30;;
50695;SDS011;36665;51.786;21.594;2023-01-25T14:23:43;61.00;;;25.00;;
50695;SDS011;36665;51.786;21.594;2023-01-25T14:32:13;37.70;;;18.10;;
50695;SDS011;36665;51.786;21.594;2023-01-25T14:40:42;43.30;;;21.90;;
50695;SDS011;36665;51.786;21.594;2023-01-25T14:49:15;63.30;;;29.50;;
50695;SDS011;36665;51.786;21.594;2023-01-25T14:57:51;65.60;;;30.40;;
50695;SDS011;36665;51.786;21.594;2023-01-25T15:06:21;84.10;;;33.70;;
50695;SDS011;36665;51.786;21.594;2023-01-25T15:14:48;41.90;;;20.30;;
50695;SDS011;36665;51.786;21.594;2023-01-25T15:31:51;75.80;;;33.20;;
50695;SDS011;36665;51.786;21.594;2023-01-25T15:40:17;44.10;;;23.50;;
50695;SDS011;36665;51.786;21.594;2023-01-25T15:48:40;48.90;;;20.10;;
50695;SDS011;36665;51.786;21.594;2023-01-25T15:57:07;67.50;;;29.40;;
50695;SDS011;36665;51.786;21.594;2023-01-25T16:05:47;54.60;;;24.10;;
50695;SDS011;36665;51.786;21.594;2023-01-25T16:14:16;50.60;;;24.00;;
50695;SDS011;36665;51.786;21.594;2023-01-25T16:22:44;49.40;;;22.60;;
50695;SDS011;36665;51.786;21.594;2023-01-25T16:31:12;75.00;;;32.60;;
50695;SDS011;36665;51.786;21.594;2023-01-25T16:39:54;47.30;;;22.80;;
50695;SDS011;36665;51.786;21.594;2023-01-25T16:48:17;53.40;;;24.70;;
50695;SDS011;36665;51.786;21.594;2023-01-25T16:56:40;140.80;;;50.50;;
50695;SDS011;36665;51.786;21.594;2023-01-25T17:05:04;225.30;;;80.70;;
50695;SDS011;36665;51.786;21.594;2023-01-25T17:13:29;186.60;;;74.60;;
50695;SDS011;36665;51.786;21.594;2023-01-25T17:21:52;114.40;;;53.60;;
50695;SDS011;36665;51.786;21.594;2023-01-25T17:30:15;45.60;;;22.30;;
50695;SDS011;36665;51.786;21.594;2023-01-25T17:38:39;52.50;;;27.80;;
50695;SDS011;36665;51.786;21.594;2023-01-25T17:47:02;50.80;;;24.40;;
50695;SDS011;36665;51.786;21.594;2023-01-25T17:55:25;73.00;;;37.90;;
50695;SDS011;36665;51.786;21.594;2023-01-25T18:03:49;58.60;;;24.70;;
50695;SDS011;36665;51.786;21.594;2023-01-25T18:12:13;75.00;;;34.30;;
50695;SDS011;36665;51.786;21.594;2023-01-25T18:20:41;56.00;;;28.80;;
50695;SDS011;36665;51.786;21.594;2023-01-25T18:29:18;56.00;;;28.00;;
50695;SDS011;36665;51.786;21.594;2023-01-25T18:37:50;58.30;;;25.50;;
50695;SDS011;36665;51.786;21.594;2023-01-25T18:46:13;129.50;;;63.30;;
50695;SDS011;36665;51.786;21.594;2023-01-25T18:54:36;62.20;;;31.50;;
50695;SDS011;36665;51.786;21.594;2023-01-25T19:02:59;68.70;;;33.70;;
50695;SDS011;36665;51.786;21.594;2023-01-25T19:11:22;55.10;;;24.30;;
50695;SDS011;36665;51.786;21.594;2023-01-25T19:19:45;67.20;;;34.10;;
50695;SDS011;36665;51.786;21.594;2023-01-25T19:28:08;251.50;;;106.80;;
50695;SDS011;36665;51.786;21.594;2023-01-25T19:36:32;75.70;;;37.90;;
50695;SDS011;36665;51.786;21.594;2023-01-25T19:44:57;59.50;;;27.90;;
50695;SDS011;36665;51.786;21.594;2023-01-25T19:53:24;60.60;;;27.20;;
50695;SDS011;36665;51.786;21.594;2023-01-25T20:01:47;454.30;;;199.70;;
50695;SDS011;36665;51.786;21.594;2023-01-25T20:10:11;644.30;;;303.30;;
50695;SDS011;36665;51.786;21.594;2023-01-25T20:18:34;544.50;;;226.40;;
50695;SDS011;36665;51.786;21.594;2023-01-25T20:26:57;502.90;;;193.40;;
50695;SDS011;36665;51.786;21.594;2023-01-25T20:35:20;236.50;;;74.30;;
50695;SDS011;36665;51.786;21.594;2023-01-25T20:43:46;523.40;;;192.60;;
50695;SDS011;36665;51.786;21.594;2023-01-25T20:52:11;301.20;;;112.30;;
50695;SDS011;36665;51.786;21.594;2023-01-25T21:00:35;245.90;;;92.60;;
50695;SDS011;36665;51.786;21.594;2023-01-25T21:08:58;164.40;;;64.10;;
50695;SDS011;36665;51.786;21.594;2023-01-25T21:17:21;155.80;;;66.60;;
50695;SDS011;36665;51.786;21.594;2023-01-25T21:25:44;125.30;;;54.90;;
50695;SDS011;36665;51.786;21.594;2023-01-25T21:34:08;173.90;;;73.00;;
50695;SDS011;36665;51.786;21.594;2023-01-25T21:42:33;65.40;;;29.00;;
50695;SDS011;36665;51.786;21.594;2023-01-25T21:50:56;81.80;;;39.60;;
50695;SDS011;36665;51.786;21.594;2023-01-25T21:59:38;56.20;;;24.70;;
50695;SDS011;36665;51.786;21.594;2023-01-25T22:08:02;55.70;;;30.00;;
50695;SDS011;36665;51.786;21.594;2023-01-25T22:16:25;51.00;;;27.30;;
50695;SDS011;36665;51.786;21.594;2023-01-25T22:24:50;43.40;;;22.00;;
50695;SDS011;36665;51.786;21.594;2023-01-25T22:33:13;44.80;;;21.20;;
50695;SDS011;36665;51.786;21.594;2023-01-25T22:41:36;40.20;;;19.40;;
50695;SDS011;36665;51.786;21.594;2023-01-25T22:49:59;46.40;;;19.50;;
50695;SDS011;36665;51.786;21.594;2023-01-25T22:58:22;43.80;;;22.00;;
50695;SDS011;36665;51.786;21.594;2023-01-25T23:06:45;50.50;;;20.40;;
50695;SDS011;36665;51.786;21.594;2023-01-25T23:15:08;51.60;;;25.20;;
50695;SDS011;36665;51.786;21.594;2023-01-25T23:23:37;50.20;;;19.20;;
50695;SDS011;36665;51.786;21.594;2023-01-25T23:32:00;47.20;;;22.40;;
50695;SDS011;36665;51.786;21.594;2023-01-25T23:40:23;55.20;;;22.20;;
50695;SDS011;36665;51.786;21.594;2023-01-25T23:48:46;50.00;;;21.00;;
50695;SDS011;36665;51.786;21.594;2023-01-25T23:57:09;55.80;;;23.30;;
